Athol Springs, New York
Current Conditions -  °F | °C
As of 5:54 AM on Monday 20 Oct 2014 (Local Time) from KBUF Reporting Station
Broken Clouds Broken Clouds  
Wind Chill: 41°   Ceiling: 10000
Heat Index: 45°   Visibility: 10mi
Dew Point: 36°   Wind: 8mph
Humidity: 71%   Direction: 190°S
Pressure: 29.93"   Gusts: NA
Location:  42.77°N, 78.87°W
Report Text: KBUF 200954Z 19007KT 10SM FEW023 SCT033 BKN100 BKN240 07/02 A2993 RMK AO2 SLP141 T00720022
Loading
Personal Weather Stations






























Interactive Weather Map New forecast layout! Learn more

10-Day Weather Forecast

Advertisements
Track Severe Weather on mobile